PWSweather.com
Personal Weather Stations
Station Observations
KCAWESTM9
Westminster, CA

Westminster, CA

Lat: 33.75980759, Lon: -118.03708649

Elevation: 26

Station Type:

Latest ConditionsUpdated 10:09:00 AM PDT Thursday, Apr 18, 2019
Currently Today's Max Today's Min Today's Average
Temperature 66.6°F19.2°C 66.6°F19.2°C 55.9°F13.3°C 59.0°F15.0°C
Dew Point 54.9°F12.7°C 54.9°F12.7°C 49.6°F9.8°C 51.3°F10.7°C
Winds 1.3 mph W2.1 kmh W 1.3 mph -2.1 kmh - - 0.8 mph 1.3 kmh
Wind Gusts 2.5 mph4.0 kmh 3.8 mph6.1 kmh - -
Humidity 71% 86% 70% 80%
Pressure 30.19 in1022.4 mb 30.21 in1023.0 mb 30.18 in1022.0 mb -
Hour Temp Dew Point Humidity Winds Wind Gusts Pressure Precip Precip Rate Daily Precip Total
10:09 AM 66.6°F19.2°C 54.9°F12.7°C 71% 1.3 mph W2.1 kmh W 2.5 mph4.0 kmh 30.19 in1022.4 mb 0.00 in0.0 mm 0.00 in0.0 mm 0.00 in0.0 mm
09:49 AM 65.1°F18.4°C 53.1°F11.7°C 70% 0.7 mph WSW1.1 kmh WSW 2.5 mph4.0 kmh 30.19 in1022.4 mb 0.00 in0.0 mm 0.00 in0.0 mm 0.00 in0.0 mm
09:39 AM 64.2°F17.9°C 53.1°F11.7°C 72% 0.7 mph W1.1 kmh W 1.8 mph2.9 kmh 30.19 in1022.4 mb 0.00 in0.0 mm 0.00 in0.0 mm 0.00 in0.0 mm
09:09 AM 62.4°F16.9°C 52.9°F11.6°C 76% 0.7 mph SE1.1 kmh SE 1.8 mph2.9 kmh 30.20 in1022.7 mb 0.00 in0.0 mm 0.00 in0.0 mm 0.00 in0.0 mm
08:48 AM 61.2°F16.2°C 52.5°F11.4°C 78% 0.7 mph E1.1 kmh E 2.5 mph4.0 kmh 30.19 in1022.4 mb 0.00 in0.0 mm 0.00 in0.0 mm 0.00 in0.0 mm
08:18 AM 59.5°F15.3°C 52.2°F11.2°C 81% 1.3 mph E2.1 kmh E 3.1 mph5.0 kmh 30.20 in1022.7 mb 0.00 in0.0 mm 0.00 in0.0 mm 0.00 in0.0 mm
07:58 AM 58.3°F14.6°C 51.8°F11.0°C 83% 1.3 mph E2.1 kmh E 2.5 mph4.0 kmh 30.20 in1022.7 mb 0.00 in0.0 mm 0.00 in0.0 mm 0.00 in0.0 mm
07:38 AM 57.4°F14.1°C 51.6°F10.9°C 85% 1.3 mph ENE2.1 kmh ENE 3.8 mph6.1 kmh 30.20 in1022.7 mb 0.00 in0.0 mm 0.00 in0.0 mm 0.00 in0.0 mm
07:18 AM 56.8°F13.8°C 51.4°F10.8°C 86% 0.7 mph NE1.1 kmh NE 2.5 mph4.0 kmh 30.19 in1022.4 mb 0.00 in0.0 mm 0.00 in0.0 mm 0.00 in0.0 mm
06:58 AM 56.3°F13.5°C 50.5°F10.3°C 85% 0.7 mph NE1.1 kmh NE 1.8 mph2.9 kmh 30.19 in1022.4 mb 0.00 in0.0 mm 0.00 in0.0 mm 0.00 in0.0 mm
06:37 AM 55.9°F13.3°C 50.2°F10.1°C 85% 0.7 mph N1.1 kmh N 1.3 mph2.1 kmh 30.19 in1022.4 mb 0.00 in0.0 mm 0.00 in0.0 mm 0.00 in0.0 mm
06:17 AM 55.9°F13.3°C 50.2°F10.1°C 85% 0.7 mph N1.1 kmh N 1.3 mph2.1 kmh 30.18 in1022.0 mb 0.00 in0.0 mm 0.00 in0.0 mm 0.00 in0.0 mm
06:08 AM 56.1°F13.4°C 50.4°F10.2°C 85% 0.7 mph SE1.1 kmh SE 1.3 mph2.1 kmh 30.19 in1022.4 mb 0.00 in0.0 mm 0.00 in0.0 mm 0.00 in0.0 mm
05:47 AM 56.1°F13.4°C 49.6°F9.8°C 83% 0.7 mph NE1.1 kmh NE 1.3 mph2.1 kmh 30.18 in1022.0 mb 0.00 in0.0 mm 0.00 in0.0 mm 0.00 in0.0 mm
04:51 AM 56.7°F13.7°C 50.2°F10.1°C 83% 0.7 mph 1.1 kmh 1.3 mph2.1 kmh 30.18 in1022.0 mb 0.00 in0.0 mm 0.00 in0.0 mm 0.00 in0.0 mm
04:40 AM 56.8°F13.8°C 50.4°F10.2°C 83% 0.7 mph N1.1 kmh N 1.3 mph2.1 kmh 30.18 in1022.0 mb 0.00 in0.0 mm 0.00 in0.0 mm 0.00 in0.0 mm
04:20 AM 57.2°F14.0°C 50.7°F10.4°C 83% 0.7 mph NW1.1 kmh NW 1.3 mph2.1 kmh 30.19 in1022.4 mb 0.00 in0.0 mm 0.00 in0.0 mm 0.00 in0.0 mm
03:28 AM 57.9°F14.4°C 50.9°F10.5°C 82% 0.7 mph W1.1 kmh W 1.3 mph2.1 kmh 30.19 in1022.4 mb 0.00 in0.0 mm 0.00 in0.0 mm 0.00 in0.0 mm
03:20 AM 58.1°F14.5°C 51.1°F10.6°C 82% 0.7 mph W1.1 kmh W 1.3 mph2.1 kmh 30.19 in1022.4 mb 0.00 in0.0 mm 0.00 in0.0 mm 0.00 in0.0 mm
02:59 AM 58.3°F14.6°C 50.9°F10.5°C 81% 0.7 mph NNE1.1 kmh NNE 2.5 mph4.0 kmh 30.18 in1022.0 mb 0.00 in0.0 mm 0.00 in0.0 mm 0.00 in0.0 mm
02:40 AM 58.6°F14.8°C 51.3°F10.7°C 81% 0.7 mph SW1.1 kmh SW 1.8 mph2.9 kmh 30.20 in1022.7 mb 0.00 in0.0 mm 0.00 in0.0 mm 0.00 in0.0 mm
02:19 AM 58.8°F14.9°C 51.4°F10.8°C 81% Calm Calm 1.3 mph2.1 kmh 30.19 in1022.4 mb 0.00 in0.0 mm 0.00 in0.0 mm 0.00 in0.0 mm
02:09 AM 59.0°F15.0°C 51.3°F10.7°C 80% 0.7 mph NE1.1 kmh NE 1.3 mph2.1 kmh 30.20 in1022.7 mb 0.00 in0.0 mm 0.00 in0.0 mm 0.00 in0.0 mm
01:49 AM 59.2°F15.1°C 51.4°F10.8°C 80% 0.7 mph W1.1 kmh W 1.3 mph2.1 kmh 30.21 in1023.0 mb 0.00 in0.0 mm 0.00 in0.0 mm 0.00 in0.0 mm
01:39 AM 59.4°F15.2°C 51.3°F10.7°C 79% 0.7 mph W1.1 kmh W 1.8 mph2.9 kmh 30.21 in1023.0 mb 0.00 in0.0 mm 0.00 in0.0 mm 0.00 in0.0 mm
01:04 AM 59.9°F15.5°C 50.5°F10.3°C 76% 0.7 mph W1.1 kmh W 1.8 mph2.9 kmh 30.21 in1023.0 mb 0.00 in0.0 mm 0.00 in0.0 mm 0.00 in0.0 mm
12:44 AM 60.1°F15.6°C 49.8°F9.9°C 74% 0.7 mph W1.1 kmh W 1.8 mph2.9 kmh 30.20 in1022.7 mb 0.00 in0.0 mm 0.00 in0.0 mm 0.00 in0.0 mm
12:14 AM 60.4°F15.8°C 49.8°F9.9°C 73% 0.7 mph W1.1 kmh W 1.8 mph2.9 kmh 30.19 in1022.4 mb 0.00 in0.0 mm 0.00 in0.0 mm 0.00 in0.0 mm